sensor_id;sensor_type;location;lat;lon;timestamp;pressure;altitude;pressure_sealevel;temperature;humidity
74633;BME280;63139;52.018;8.552;2023-12-04T00:01:52;100596.59;;;0.24;100.00
74633;BME280;63139;52.018;8.552;2023-12-04T00:04:20;100591.69;;;0.19;100.00
74633;BME280;63139;52.018;8.552;2023-12-04T00:06:48;100584.81;;;0.18;100.00
74633;BME280;63139;52.018;8.552;2023-12-04T00:09:16;100585.56;;;0.20;100.00
74633;BME280;63139;52.018;8.552;2023-12-04T00:11:44;100556.84;;;0.22;100.00
74633;BME280;63139;52.018;8.552;2023-12-04T00:14:13;100574.00;;;0.24;100.00
74633;BME280;63139;52.018;8.552;2023-12-04T00:16:41;100563.91;;;0.20;100.00
74633;BME280;63139;52.018;8.552;2023-12-04T00:19:09;100563.16;;;0.18;100.00
74633;BME280;63139;52.018;8.552;2023-12-04T00:21:37;100559.53;;;0.20;100.00
74633;BME280;63139;52.018;8.552;2023-12-04T00:24:05;100550.78;;;0.21;100.00
74633;BME280;63139;52.018;8.552;2023-12-04T00:26:33;100557.97;;;0.18;100.00
74633;BME280;63139;52.018;8.552;2023-12-04T00:29:00;100547.44;;;0.19;100.00
74633;BME280;63139;52.018;8.552;2023-12-04T00:31:30;100550.66;;;0.10;100.00
74633;BME280;63139;52.018;8.552;2023-12-04T00:33:58;100540.75;;;0.15;100.00
74633;BME280;63139;52.018;8.552;2023-12-04T00:36:26;100545.69;;;0.20;100.00
74633;BME280;63139;52.018;8.552;2023-12-04T00:38:54;100545.59;;;0.21;100.00
74633;BME280;63139;52.018;8.552;2023-12-04T00:41:22;100540.16;;;0.24;100.00
74633;BME280;63139;52.018;8.552;2023-12-04T00:43:50;100543.50;;;0.26;100.00
74633;BME280;63139;52.018;8.552;2023-12-04T00:46:18;100544.25;;;0.28;100.00
74633;BME280;63139;52.018;8.552;2023-12-04T00:48:47;100531.44;;;0.25;100.00
74633;BME280;63139;52.018;8.552;2023-12-04T00:51:15;100534.56;;;0.30;100.00
74633;BME280;63139;52.018;8.552;2023-12-04T00:53:43;100528.50;;;0.30;100.00
74633;BME280;63139;52.018;8.552;2023-12-04T00:56:11;100528.50;;;0.30;100.00
74633;BME280;63139;52.018;8.552;2023-12-04T00:58:39;100526.75;;;0.30;100.00
74633;BME280;63139;52.018;8.552;2023-12-04T01:01:07;100519.38;;;0.37;100.00
74633;BME280;63139;52.018;8.552;2023-12-04T01:03:35;100526.53;;;0.33;100.00
74633;BME280;63139;52.018;8.552;2023-12-04T01:06:05;100516.22;;;0.32;100.00
74633;BME280;63139;52.018;8.552;2023-12-04T01:08:33;100509.66;;;0.26;100.00
74633;BME280;63139;52.018;8.552;2023-12-04T01:11:01;100510.50;;;0.27;100.00
74633;BME280;63139;52.018;8.552;2023-12-04T01:13:29;100511.75;;;0.21;100.00
74633;BME280;63139;52.018;8.552;2023-12-04T01:15:56;100507.69;;;0.30;100.00
74633;BME280;63139;52.018;8.552;2023-12-04T01:18:24;100509.25;;;0.32;100.00
74633;BME280;63139;52.018;8.552;2023-12-04T01:20:52;100502.19;;;0.34;100.00
74633;BME280;63139;52.018;8.552;2023-12-04T01:23:21;100500.31;;;0.36;100.00
74633;BME280;63139;52.018;8.552;2023-12-04T01:25:49;100502.59;;;0.28;100.00
74633;BME280;63139;52.018;8.552;2023-12-04T01:28:17;100498.09;;;0.30;100.00
74633;BME280;63139;52.018;8.552;2023-12-04T01:30:45;100501.03;;;0.38;100.00
74633;BME280;63139;52.018;8.552;2023-12-04T01:33:13;100498.44;;;0.38;100.00
74633;BME280;63139;52.018;8.552;2023-12-04T01:35:40;100498.97;;;0.44;100.00
74633;BME280;63139;52.018;8.552;2023-12-04T01:38:08;100487.19;;;0.38;100.00
74633;BME280;63139;52.018;8.552;2023-12-04T01:40:37;100495.00;;;0.38;100.00
74633;BME280;63139;52.018;8.552;2023-12-04T01:43:05;100492.81;;;0.45;100.00
74633;BME280;63139;52.018;8.552;2023-12-04T01:45:33;100493.63;;;0.45;100.00
74633;BME280;63139;52.018;8.552;2023-12-04T01:48:02;100488.97;;;0.50;100.00
74633;BME280;63139;52.018;8.552;2023-12-04T01:50:33;100487.31;;;0.49;100.00
74633;BME280;63139;52.018;8.552;2023-12-04T01:53:02;100478.66;;;0.49;100.00
74633;BME280;63139;52.018;8.552;2023-12-04T01:55:31;100482.69;;;0.53;100.00
74633;BME280;63139;52.018;8.552;2023-12-04T01:58:02;100473.13;;;0.53;100.00
74633;BME280;63139;52.018;8.552;2023-12-04T02:00:30;100474.69;;;0.56;100.00
74633;BME280;63139;52.018;8.552;2023-12-04T02:02:59;100470.22;;;0.58;100.00
74633;BME280;63139;52.018;8.552;2023-12-04T02:05:27;100464.19;;;0.57;100.00
74633;BME280;63139;52.018;8.552;2023-12-04T02:07:56;100460.09;;;0.53;100.00
74633;BME280;63139;52.018;8.552;2023-12-04T02:10:24;100460.84;;;0.55;100.00
74633;BME280;63139;52.018;8.552;2023-12-04T02:12:52;100461.03;;;0.52;100.00
74633;BME280;63139;52.018;8.552;2023-12-04T02:15:21;100459.16;;;0.54;100.00
74633;BME280;63139;52.018;8.552;2023-12-04T02:17:49;100461.47;;;0.59;100.00
74633;BME280;63139;52.018;8.552;2023-12-04T02:20:18;100456.03;;;0.62;100.00
74633;BME280;63139;52.018;8.552;2023-12-04T02:22:45;100460.41;;;0.61;100.00
74633;BME280;63139;52.018;8.552;2023-12-04T02:25:15;100460.13;;;0.66;100.00
74633;BME280;63139;52.018;8.552;2023-12-04T02:28:02;100447.78;;;0.68;100.00
74633;BME280;63139;52.018;8.552;2023-12-04T02:30:34;100444.50;;;0.66;100.00
74633;BME280;63139;52.018;8.552;2023-12-04T02:33:05;100435.72;;;0.67;100.00
74633;BME280;63139;52.018;8.552;2023-12-04T02:35:35;100435.41;;;0.71;100.00
74633;BME280;63139;52.018;8.552;2023-12-04T02:38:04;100425.19;;;0.68;100.00
74633;BME280;63139;52.018;8.552;2023-12-04T02:40:34;100426.84;;;0.69;100.00
74633;BME280;63139;52.018;8.552;2023-12-04T02:43:02;100420.72;;;0.70;100.00
74633;BME280;63139;52.018;8.552;2023-12-04T02:45:30;100415.00;;;0.65;100.00
74633;BME280;63139;52.018;8.552;2023-12-04T02:47:58;100411.47;;;0.66;100.00
74633;BME280;63139;52.018;8.552;2023-12-04T02:50:26;100404.59;;;0.65;100.00
74633;BME280;63139;52.018;8.552;2023-12-04T02:52:54;100394.88;;;0.67;100.00
74633;BME280;63139;52.018;8.552;2023-12-04T02:55:22;100393.44;;;0.63;100.00
74633;BME280;63139;52.018;8.552;2023-12-04T02:57:51;100398.31;;;0.68;100.00
74633;BME280;63139;52.018;8.552;2023-12-04T03:00:19;100382.47;;;0.71;100.00
74633;BME280;63139;52.018;8.552;2023-12-04T03:02:47;100381.44;;;0.73;100.00
74633;BME280;63139;52.018;8.552;2023-12-04T03:05:15;100378.84;;;0.73;100.00
74633;BME280;63139;52.018;8.552;2023-12-04T03:07:42;100368.41;;;0.73;100.00
74633;BME280;63139;52.018;8.552;2023-12-04T03:10:10;100364.56;;;0.66;100.00
74633;BME280;63139;52.018;8.552;2023-12-04T03:12:38;100358.19;;;0.70;100.00
74633;BME280;63139;52.018;8.552;2023-12-04T03:15:08;100357.16;;;0.73;100.00
74633;BME280;63139;52.018;8.552;2023-12-04T03:17:37;100347.69;;;0.72;100.00
74633;BME280;63139;52.018;8.552;2023-12-04T03:20:05;100350.28;;;0.72;100.00
74633;BME280;63139;52.018;8.552;2023-12-04T03:22:36;100343.28;;;0.72;100.00
74633;BME280;63139;52.018;8.552;2023-12-04T03:25:05;100346.84;;;0.71;100.00
74633;BME280;63139;52.018;8.552;2023-12-04T03:27:33;100348.06;;;0.78;100.00
74633;BME280;63139;52.018;8.552;2023-12-04T03:30:01;100347.97;;;0.80;100.00
74633;BME280;63139;52.018;8.552;2023-12-04T03:32:30;100339.06;;;0.83;100.00
74633;BME280;63139;52.018;8.552;2023-12-04T03:34:58;100344.81;;;0.88;100.00
74633;BME280;63139;52.018;8.552;2023-12-04T03:37:26;100337.59;;;0.91;100.00
74633;BME280;63139;52.018;8.552;2023-12-04T03:39:54;100342.50;;;0.96;100.00
74633;BME280;63139;52.018;8.552;2023-12-04T03:42:22;100336.09;;;1.00;100.00
74633;BME280;63139;52.018;8.552;2023-12-04T03:44:50;100332.56;;;1.01;100.00
74633;BME280;63139;52.018;8.552;2023-12-04T03:47:17;100329.59;;;1.05;100.00
74633;BME280;63139;52.018;8.552;2023-12-04T03:49:47;100333.78;;;1.08;100.00
74633;BME280;63139;52.018;8.552;2023-12-04T03:52:14;100317.94;;;1.11;100.00
74633;BME280;63139;52.018;8.552;2023-12-04T03:54:42;100322.41;;;1.09;100.00
74633;BME280;63139;52.018;8.552;2023-12-04T03:57:12;100323.13;;;1.11;100.00
74633;BME280;63139;52.018;8.552;2023-12-04T03:59:40;100310.91;;;1.11;100.00
74633;BME280;63139;52.018;8.552;2023-12-04T04:02:08;100312.47;;;1.14;100.00
74633;BME280;63139;52.018;8.552;2023-12-04T04:04:36;100311.53;;;1.15;100.00
74633;BME280;63139;52.018;8.552;2023-12-04T04:07:05;100309.66;;;1.17;100.00
74633;BME280;63139;52.018;8.552;2023-12-04T04:09:33;100308.72;;;1.18;100.00
74633;BME280;63139;52.018;8.552;2023-12-04T04:12:01;100297.09;;;1.22;100.00
74633;BME280;63139;52.018;8.552;2023-12-04T04:14:28;100302.22;;;1.24;100.00
74633;BME280;63139;52.018;8.552;2023-12-04T04:16:56;100294.97;;;1.27;100.00
74633;BME280;63139;52.018;8.552;2023-12-04T04:19:24;100293.09;;;1.29;100.00
74633;BME280;63139;52.018;8.552;2023-12-04T04:21:53;100289.44;;;1.32;100.00
74633;BME280;63139;52.018;8.552;2023-12-04T04:24:22;100288.50;;;1.33;100.00
74633;BME280;63139;52.018;8.552;2023-12-04T04:26:51;100283.03;;;1.36;100.00
74633;BME280;63139;52.018;8.552;2023-12-04T04:29:18;100285.53;;;1.37;100.00
74633;BME280;63139;52.018;8.552;2023-12-04T04:31:46;100283.75;;;1.38;100.00
74633;BME280;63139;52.018;8.552;2023-12-04T04:34:14;100277.50;;;1.40;100.00
74633;BME280;63139;52.018;8.552;2023-12-04T04:36:42;100271.19;;;1.43;100.00
74633;BME280;63139;52.018;8.552;2023-12-04T04:39:12;100278.81;;;1.46;100.00
74633;BME280;63139;52.018;8.552;2023-12-04T04:41:42;100274.31;;;1.48;100.00
74633;BME280;63139;52.018;8.552;2023-12-04T04:44:10;100278.56;;;1.49;100.00
74633;BME280;63139;52.018;8.552;2023-12-04T04:46:37;100273.22;;;1.50;100.00
74633;BME280;63139;52.018;8.552;2023-12-04T04:49:05;100267.19;;;1.50;100.00
74633;BME280;63139;52.018;8.552;2023-12-04T04:51:34;100273.13;;;1.52;100.00
74633;BME280;63139;52.018;8.552;2023-12-04T04:54:02;100275.00;;;1.50;100.00
74633;BME280;63139;52.018;8.552;2023-12-04T04:56:30;100266.13;;;1.52;100.00
74633;BME280;63139;52.018;8.552;2023-12-04T04:58:59;100268.75;;;1.52;100.00
74633;BME280;63139;52.018;8.552;2023-12-04T05:01:27;100261.75;;;1.53;100.00
74633;BME280;63139;52.018;8.552;2023-12-04T05:03:54;100258.19;;;1.54;99.21
74633;BME280;63139;52.018;8.552;2023-12-04T05:06:22;100260.91;;;1.52;97.25
74633;BME280;63139;52.018;8.552;2023-12-04T05:08:51;100261.03;;;1.51;94.89
74633;BME280;63139;52.018;8.552;2023-12-04T05:11:19;100265.41;;;1.50;95.38
74633;BME280;63139;52.018;8.552;2023-12-04T05:13:47;100256.63;;;1.51;97.83
74633;BME280;63139;52.018;8.552;2023-12-04T05:16:16;100262.59;;;1.53;97.71
74633;BME280;63139;52.018;8.552;2023-12-04T05:18:44;100260.56;;;1.57;96.26
74633;BME280;63139;52.018;8.552;2023-12-04T05:21:12;100247.50;;;1.57;96.37
74633;BME280;63139;52.018;8.552;2023-12-04T05:23:40;100256.06;;;1.59;98.26
74633;BME280;63139;52.018;8.552;2023-12-04T05:26:08;100244.69;;;1.60;94.65
74633;BME280;63139;52.018;8.552;2023-12-04T05:28:35;100247.50;;;1.57;93.70
74633;BME280;63139;52.018;8.552;2023-12-04T05:31:04;100243.97;;;1.58;94.06
74633;BME280;63139;52.018;8.552;2023-12-04T05:33:33;100242.06;;;1.60;94.84
74633;BME280;63139;52.018;8.552;2023-12-04T05:36:01;100244.56;;;1.62;94.60
74633;BME280;63139;52.018;8.552;2023-12-04T05:38:28;100234.13;;;1.62;93.35
74633;BME280;63139;52.018;8.552;2023-12-04T05:40:56;100237.22;;;1.67;92.71
74633;BME280;63139;52.018;8.552;2023-12-04T05:43:24;100230.34;;;1.66;92.79
74633;BME280;63139;52.018;8.552;2023-12-04T05:45:52;100225.13;;;1.66;93.53
74633;BME280;63139;52.018;8.552;2023-12-04T05:48:20;100230.13;;;1.69;94.18
74633;BME280;63139;52.018;8.552;2023-12-04T05:50:49;100217.41;;;1.64;92.47
74633;BME280;63139;52.018;8.552;2023-12-04T05:53:17;100227.38;;;1.70;91.68
74633;BME280;63139;52.018;8.552;2023-12-04T05:55:45;100224.53;;;1.73;93.89
74633;BME280;63139;52.018;8.552;2023-12-04T05:58:13;100221.34;;;1.70;91.69
74633;BME280;63139;52.018;8.552;2023-12-04T06:00:41;100222.88;;;1.72;92.92
74633;BME280;63139;52.018;8.552;2023-12-04T06:03:09;100220.25;;;1.72;92.83
74633;BME280;63139;52.018;8.552;2023-12-04T06:05:37;100221.69;;;1.76;93.68
74633;BME280;63139;52.018;8.552;2023-12-04T06:08:06;100220.59;;;1.79;93.59
74633;BME280;63139;52.018;8.552;2023-12-04T06:10:34;100230.09;;;1.80;91.49
74633;BME280;63139;52.018;8.552;2023-12-04T06:13:02;100221.44;;;1.79;87.94
74633;BME280;63139;52.018;8.552;2023-12-04T06:15:30;100221.22;;;1.82;89.57
74633;BME280;63139;52.018;8.552;2023-12-04T06:17:58;100225.94;;;1.88;90.71
74633;BME280;63139;52.018;8.552;2023-12-04T06:20:27;100216.69;;;1.95;90.21
74633;BME280;63139;52.018;8.552;2023-12-04T06:22:55;100220.50;;;1.91;82.98
74633;BME280;63139;52.018;8.552;2023-12-04T06:25:25;100216.47;;;1.99;86.49
74633;BME280;63139;52.018;8.552;2023-12-04T06:27:53;100212.09;;;1.99;87.27
74633;BME280;63139;52.018;8.552;2023-12-04T06:30:22;100206.38;;;2.05;88.01
74633;BME280;63139;52.018;8.552;2023-12-04T06:32:50;100214.19;;;2.05;85.20
74633;BME280;63139;52.018;8.552;2023-12-04T06:35:19;100210.66;;;2.06;86.42
74633;BME280;63139;52.018;8.552;2023-12-04T06:37:48;100210.38;;;2.09;85.63
74633;BME280;63139;52.018;8.552;2023-12-04T06:40:17;100212.78;;;2.12;85.67
74633;BME280;63139;52.018;8.552;2023-12-04T06:42:47;100211.56;;;2.16;85.78
74633;BME280;63139;52.018;8.552;2023-12-04T06:45:16;100215.00;;;2.17;86.66
74633;BME280;63139;52.018;8.552;2023-12-04T06:47:45;100218.72;;;2.14;82.91
74633;BME280;63139;52.018;8.552;2023-12-04T06:50:16;100215.13;;;2.15;85.91
74633;BME280;63139;52.018;8.552;2023-12-04T06:52:43;100217.50;;;2.18;86.11
74633;BME280;63139;52.018;8.552;2023-12-04T06:55:12;100225.22;;;2.20;84.87
74633;BME280;63139;52.018;8.552;2023-12-04T06:57:40;100221.66;;;2.21;85.12
74633;BME280;63139;52.018;8.552;2023-12-04T07:00:10;100226.63;;;2.24;86.08
74633;BME280;63139;52.018;8.552;2023-12-04T07:02:48;100222.22;;;2.24;84.36
74633;BME280;63139;52.018;8.552;2023-12-04T07:05:16;100218.09;;;2.22;82.17
74633;BME280;63139;52.018;8.552;2023-12-04T07:07:45;100213.44;;;2.25;84.66
74633;BME280;63139;52.018;8.552;2023-12-04T07:10:13;100210.00;;;2.25;84.69
74633;BME280;63139;52.018;8.552;2023-12-04T07:12:42;100204.22;;;2.21;83.30
74633;BME280;63139;52.018;8.552;2023-12-04T07:15:12;100197.78;;;2.25;84.41
74633;BME280;63139;52.018;8.552;2023-12-04T07:17:39;100194.72;;;2.20;82.77
74633;BME280;63139;52.018;8.552;2023-12-04T07:20:08;100184.97;;;2.22;83.25
74633;BME280;63139;52.018;8.552;2023-12-04T07:22:38;100184.28;;;2.20;79.82
74633;BME280;63139;52.018;8.552;2023-12-04T07:25:07;100178.56;;;2.15;80.81
74633;BME280;63139;52.018;8.552;2023-12-04T07:27:35;100189.00;;;2.15;79.48
74633;BME280;63139;52.018;8.552;2023-12-04T07:30:03;100184.88;;;2.13;79.06
74633;BME280;63139;52.018;8.552;2023-12-04T07:32:33;100191.50;;;2.17;81.98
74633;BME280;63139;52.018;8.552;2023-12-04T07:35:02;100191.50;;;2.17;79.32
74633;BME280;63139;52.018;8.552;2023-12-04T07:37:29;100188.06;;;2.16;81.00
74633;BME280;63139;52.018;8.552;2023-12-04T07:39:58;100182.00;;;2.16;79.25
74633;BME280;63139;52.018;8.552;2023-12-04T07:42:26;100177.41;;;2.08;78.32
74633;BME280;63139;52.018;8.552;2023-12-04T07:44:54;100177.66;;;2.05;79.26
74633;BME280;63139;52.018;8.552;2023-12-04T07:47:22;100176.00;;;2.04;79.10
74633;BME280;63139;52.018;8.552;2023-12-04T07:49:53;100167.56;;;2.01;77.02
74633;BME280;63139;52.018;8.552;2023-12-04T07:52:20;100176.94;;;2.03;79.61
74633;BME280;63139;52.018;8.552;2023-12-04T07:54:49;100175.16;;;2.04;78.74
74633;BME280;63139;52.018;8.552;2023-12-04T07:57:16;100171.84;;;2.02;79.10
74633;BME280;63139;52.018;8.552;2023-12-04T07:59:44;100173.03;;;1.98;76.87
74633;BME280;63139;52.018;8.552;2023-12-04T08:02:16;100170.31;;;1.99;79.87
74633;BME280;63139;52.018;8.552;2023-12-04T08:04:44;100171.94;;;2.00;77.70
74633;BME280;63139;52.018;8.552;2023-12-04T08:07:13;100173.38;;;2.04;79.85
74633;BME280;63139;52.018;8.552;2023-12-04T08:09:41;100169.81;;;2.05;76.86
74633;BME280;63139;52.018;8.552;2023-12-04T08:12:09;100166.13;;;2.08;77.57
74633;BME280;63139;52.018;8.552;2023-12-04T08:14:37;100159.00;;;2.10;77.26
74633;BME280;63139;52.018;8.552;2023-12-04T08:17:05;100162.22;;;2.13;77.38
74633;BME280;63139;52.018;8.552;2023-12-04T08:19:33;100160.28;;;2.15;74.57
74633;BME280;63139;52.018;8.552;2023-12-04T08:22:01;100153.88;;;2.19;76.06
74633;BME280;63139;52.018;8.552;2023-12-04T08:24:31;100155.16;;;2.25;74.59
74633;BME280;63139;52.018;8.552;2023-12-04T08:26:59;100147.22;;;2.26;75.89
74633;BME280;63139;52.018;8.552;2023-12-04T08:29:27;100146.72;;;2.32;75.75
74633;BME280;63139;52.018;8.552;2023-12-04T08:31:55;100138.78;;;2.34;76.06
74633;BME280;63139;52.018;8.552;2023-12-04T08:34:22;100132.84;;;2.32;73.56
74633;BME280;63139;52.018;8.552;2023-12-04T08:36:50;100136.72;;;2.38;74.90
74633;BME280;63139;52.018;8.552;2023-12-04T08:39:18;100133.75;;;2.42;74.72
74633;BME280;63139;52.018;8.552;2023-12-04T08:41:48;100136.25;;;2.44;73.84
74633;BME280;63139;52.018;8.552;2023-12-04T08:44:27;100130.53;;;2.50;74.36
74633;BME280;63139;52.018;8.552;2023-12-04T08:46:55;100131.91;;;2.54;73.52
74633;BME280;63139;52.018;8.552;2023-12-04T08:49:24;100125.81;;;2.64;74.77
74633;BME280;63139;52.018;8.552;2023-12-04T08:52:05;100122.94;;;2.67;74.18
74633;BME280;63139;52.018;8.552;2023-12-04T08:54:33;100131.44;;;2.81;75.96
74633;BME280;63139;52.018;8.552;2023-12-04T08:57:03;100118.56;;;2.89;74.49
74633;BME280;63139;52.018;8.552;2023-12-04T08:59:33;100116.50;;;2.92;73.67
74633;BME280;63139;52.018;8.552;2023-12-04T09:02:01;100117.66;;;2.99;73.09
74633;BME280;63139;52.018;8.552;2023-12-04T09:04:30;100115.63;;;3.03;73.26
74633;BME280;63139;52.018;8.552;2023-12-04T09:06:58;100109.75;;;3.10;74.17
74633;BME280;63139;52.018;8.552;2023-12-04T09:09:29;100107.31;;;3.19;73.57
74633;BME280;63139;52.018;8.552;2023-12-04T09:11:59;100107.75;;;3.24;73.21
74633;BME280;63139;52.018;8.552;2023-12-04T09:14:28;100098.41;;;3.31;73.21
74633;BME280;63139;52.018;8.552;2023-12-04T09:16:56;100098.84;;;3.36;72.54
74633;BME280;63139;52.018;8.552;2023-12-04T09:19:24;100101.88;;;3.41;71.32
74633;BME280;63139;52.018;8.552;2023-12-04T09:21:52;100092.94;;;3.43;70.52
74633;BME280;63139;52.018;8.552;2023-12-04T09:24:34;100102.38;;;3.56;71.73
74633;BME280;63139;52.018;8.552;2023-12-04T09:27:02;100085.84;;;3.55;69.24
74633;BME280;63139;52.018;8.552;2023-12-04T09:29:31;100080.31;;;3.58;69.90
74633;BME280;63139;52.018;8.552;2023-12-04T09:32:00;100085.84;;;3.65;71.50
74633;BME280;63139;52.018;8.552;2023-12-04T09:34:29;100071.81;;;3.66;68.49
74633;BME280;63139;52.018;8.552;2023-12-04T09:36:57;100078.81;;;3.65;67.34
74633;BME280;63139;52.018;8.552;2023-12-04T09:39:36;100080.50;;;3.66;68.01
74633;BME280;63139;52.018;8.552;2023-12-04T09:42:05;100084.75;;;3.67;67.37
74633;BME280;63139;52.018;8.552;2023-12-04T09:44:36;100080.63;;;3.65;67.22
74633;BME280;63139;52.018;8.552;2023-12-04T09:47:05;100073.19;;;3.60;63.76
74633;BME280;63139;52.018;8.552;2023-12-04T09:49:34;100069.56;;;3.51;64.80
74633;BME280;63139;52.018;8.552;2023-12-04T09:52:03;100060.75;;;3.53;65.76
74633;BME280;63139;52.018;8.552;2023-12-04T09:54:32;100065.31;;;3.60;66.15
74633;BME280;63139;52.018;8.552;2023-12-04T09:57:01;100058.44;;;3.59;65.15
74633;BME280;63139;52.018;8.552;2023-12-04T09:59:30;100065.34;;;3.70;68.33
74633;BME280;63139;52.018;8.552;2023-12-04T10:02:00;100066.31;;;3.78;67.72
74633;BME280;63139;52.018;8.552;2023-12-04T10:04:28;100049.91;;;3.67;67.71
74633;BME280;63139;52.018;8.552;2023-12-04T10:06:57;100051.44;;;3.69;66.11
74633;BME280;63139;52.018;8.552;2023-12-04T10:09:24;100037.63;;;3.58;64.06
74633;BME280;63139;52.018;8.552;2023-12-04T10:11:54;100040.28;;;3.67;66.33
74633;BME280;63139;52.018;8.552;2023-12-04T10:14:23;100025.69;;;3.74;67.29
74633;BME280;63139;52.018;8.552;2023-12-04T10:16:52;100016.28;;;3.72;65.22
74633;BME280;63139;52.018;8.552;2023-12-04T10:19:23;100010.91;;;3.64;63.15
74633;BME280;63139;52.018;8.552;2023-12-04T10:21:55;100013.41;;;3.75;66.46
74633;BME280;63139;52.018;8.552;2023-12-04T10:24:30;99998.25;;;3.78;66.81
74633;BME280;63139;52.018;8.552;2023-12-04T10:26:59;99999.66;;;3.82;66.09
74633;BME280;63139;52.018;8.552;2023-12-04T10:29:28;99985.72;;;3.63;62.62
74633;BME280;63139;52.018;8.552;2023-12-04T10:31:59;99995.50;;;3.70;65.41
74633;BME280;63139;52.018;8.552;2023-12-04T10:34:30;99998.56;;;3.85;65.90
74633;BME280;63139;52.018;8.552;2023-12-04T10:37:02;99999.66;;;3.92;64.87
74633;BME280;63139;52.018;8.552;2023-12-04T10:39:32;99985.75;;;3.92;64.59
74633;BME280;63139;52.018;8.552;2023-12-04T10:42:23;99976.91;;;3.73;63.23
74633;BME280;63139;52.018;8.552;2023-12-04T10:44:52;99990.53;;;3.86;64.27
74633;BME280;63139;52.018;8.552;2023-12-04T10:47:19;99978.56;;;3.94;65.71
74633;BME280;63139;52.018;8.552;2023-12-04T10:49:50;99973.34;;;3.84;61.74
74633;BME280;63139;52.018;8.552;2023-12-04T10:52:18;99976.06;;;4.02;65.44
74633;BME280;63139;52.018;8.552;2023-12-04T10:54:46;99966.72;;;3.99;63.44
74633;BME280;63139;52.018;8.552;2023-12-04T10:57:20;99967.25;;;4.03;63.34
74633;BME280;63139;52.018;8.552;2023-12-04T10:59:51;99958.31;;;3.96;61.75
74633;BME280;63139;52.018;8.552;2023-12-04T11:02:26;99956.50;;;3.96;62.43
74633;BME280;63139;52.018;8.552;2023-12-04T11:05:01;99949.47;;;3.87;62.13
74633;BME280;63139;52.018;8.552;2023-12-04T11:07:35;99949.47;;;3.87;61.38
74633;BME280;63139;52.018;8.552;2023-12-04T11:10:26;99943.28;;;3.78;62.05
74633;BME280;63139;52.018;8.552;2023-12-04T11:12:57;99931.00;;;3.79;61.49
74633;BME280;63139;52.018;8.552;2023-12-04T11:15:29;99934.59;;;3.87;63.37
74633;BME280;63139;52.018;8.552;2023-12-04T11:18:00;99936.81;;;3.92;63.79
74633;BME280;63139;52.018;8.552;2023-12-04T11:20:31;99939.84;;;3.87;64.09
74633;BME280;63139;52.018;8.552;2023-12-04T11:23:01;99933.06;;;3.95;64.28
74633;BME280;63139;52.018;8.552;2023-12-04T11:25:32;99936.13;;;4.00;63.25
74633;BME280;63139;52.018;8.552;2023-12-04T11:28:03;99926.44;;;4.00;62.38
74633;BME280;63139;52.018;8.552;2023-12-04T11:30:32;99934.47;;;3.99;64.29
74633;BME280;63139;52.018;8.552;2023-12-04T11:33:00;99928.66;;;3.95;62.86
74633;BME280;63139;52.018;8.552;2023-12-04T11:35:33;99927.00;;;3.94;62.11
74633;BME280;63139;52.018;8.552;2023-12-04T11:38:01;99907.19;;;3.92;62.49
74633;BME280;63139;52.018;8.552;2023-12-04T11:40:29;99906.63;;;3.98;63.04
74633;BME280;63139;52.018;8.552;2023-12-04T11:42:57;99904.00;;;4.07;63.74
74633;BME280;63139;52.018;8.552;2023-12-04T11:45:25;99910.59;;;4.11;64.07
74633;BME280;63139;52.018;8.552;2023-12-04T11:47:54;99913.34;;;4.19;64.48
74633;BME280;63139;52.018;8.552;2023-12-04T11:50:24;99902.03;;;4.19;63.16
74633;BME280;63139;52.018;8.552;2023-12-04T11:52:54;99906.56;;;4.17;65.22
74633;BME280;63139;52.018;8.552;2023-12-04T11:55:23;99914.72;;;4.14;65.99
74633;BME280;63139;52.018;8.552;2023-12-04T11:57:53;99909.91;;;4.09;66.13
74633;BME280;63139;52.018;8.552;2023-12-04T12:00:24;99906.22;;;3.93;67.59
74633;BME280;63139;52.018;8.552;2023-12-04T12:03:02;99908.03;;;3.92;70.22
74633;BME280;63139;52.018;8.552;2023-12-04T12:05:49;99897.94;;;3.87;68.06
74633;BME280;63139;52.018;8.552;2023-12-04T12:08:22;99895.03;;;4.00;69.03
74633;BME280;63139;52.018;8.552;2023-12-04T12:10:51;99879.75;;;3.96;64.88
74633;BME280;63139;52.018;8.552;2023-12-04T12:13:20;99872.44;;;3.99;65.56
74633;BME280;63139;52.018;8.552;2023-12-04T12:15:48;99863.59;;;4.00;66.03
74633;BME280;63139;52.018;8.552;2023-12-04T12:18:18;99864.53;;;4.09;66.02
74633;BME280;63139;52.018;8.552;2023-12-04T12:20:46;99858.34;;;4.10;63.74
74633;BME280;63139;52.018;8.552;2023-12-04T12:23:13;99855.03;;;4.08;63.35
74633;BME280;63139;52.018;8.552;2023-12-04T12:25:43;99856.56;;;4.10;63.14
74633;BME280;63139;52.018;8.552;2023-12-04T12:28:11;99859.72;;;4.14;62.73
74633;BME280;63139;52.018;8.552;2023-12-04T12:30:39;99859.44;;;4.17;63.64
74633;BME280;63139;52.018;8.552;2023-12-04T12:33:08;99847.03;;;4.19;62.62
74633;BME280;63139;52.018;8.552;2023-12-04T12:35:36;99853.91;;;4.20;61.78
74633;BME280;63139;52.018;8.552;2023-12-04T12:38:07;99850.47;;;4.19;62.92
74633;BME280;63139;52.018;8.552;2023-12-04T12:40:35;99833.94;;;4.09;61.53
74633;BME280;63139;52.018;8.552;2023-12-04T12:43:06;99828.19;;;4.06;61.78
74633;BME280;63139;52.018;8.552;2023-12-04T12:45:41;99841.69;;;4.01;61.99
74633;BME280;63139;52.018;8.552;2023-12-04T12:48:12;99825.00;;;4.02;63.05
74633;BME280;63139;52.018;8.552;2023-12-04T12:50:41;99832.34;;;3.99;62.35
74633;BME280;63139;52.018;8.552;2023-12-04T12:53:10;99820.78;;;3.92;63.06
74633;BME280;63139;52.018;8.552;2023-12-04T12:55:38;99835.38;;;3.94;63.99
74633;BME280;63139;52.018;8.552;2023-12-04T12:58:08;99825.44;;;3.98;63.36
74633;BME280;63139;52.018;8.552;2023-12-04T13:00:36;99829.56;;;4.00;62.94
74633;BME280;63139;52.018;8.552;2023-12-04T13:03:13;99818.69;;;3.95;62.49
74633;BME280;63139;52.018;8.552;2023-12-04T13:05:41;99822.13;;;4.05;63.88
74633;BME280;63139;52.018;8.552;2023-12-04T13:08:10;99822.25;;;4.04;63.24